Time;durP1;ratioP1;P1;durP2;ratioP2;P2;SDS_P1;SDS_P2;PMS_P1;PMS_P2;Temp;Humidity;BMP_temperature;BMP_pressure;BME280_temperature;BME280_humidity;BME280_pressure;Samples;Min_cycle;Max_cycle;Signal;HPM_P1;HPM_P2
2021/08/15 00:01:45;;;;;;;10.75;5.60;;;17.00;99.90;;;;;;5052627;28;20036;-80
2021/08/15 00:04:12;;;;;;;8.35;5.75;;;17.10;99.90;;;;;;5053653;28;20055;-80
2021/08/15 00:06:38;;;;;;;8.57;4.65;;;17.20;99.90;;;;;;5040066;28;20859;-80
2021/08/15 00:09:05;;;;;;;8.73;5.43;;;17.30;99.90;;;;;;5054795;28;20047;-80
2021/08/15 00:11:33;;;;;;;9.65;5.55;;;17.30;99.90;;;;;;5057545;28;20054;-81
2021/08/15 00:13:59;;;;;;;8.55;5.30;;;17.30;99.90;;;;;;5086528;28;20060;-80
2021/08/15 00:16:26;;;;;;;9.32;5.28;;;17.30;99.90;;;;;;5035707;28;20048;-80
2021/08/15 00:18:52;;;;;;;10.35;5.13;;;17.30;99.90;;;;;;5051746;28;20055;-80
2021/08/15 00:21:19;;;;;;;8.32;4.93;;;17.30;99.90;;;;;;5034822;28;20043;-80
2021/08/15 00:23:46;;;;;;;10.15;5.47;;;17.20;99.90;;;;;;5055449;28;20031;-80
2021/08/15 00:26:12;;;;;;;7.63;4.90;;;17.20;99.90;;;;;;5070219;28;20102;-79
2021/08/15 00:28:38;;;;;;;11.55;5.72;;;17.20;99.90;;;;;;5052643;28;20052;-78
2021/08/15 00:31:05;;;;;;;8.77;5.03;;;17.20;99.90;;;;;;5069586;28;20391;-78
2021/08/15 00:33:32;;;;;;;10.02;5.70;;;17.10;99.90;;;;;;5021522;28;20047;-78
2021/08/15 00:35:59;;;;;;;9.50;5.30;;;17.10;99.90;;;;;;5088321;28;20055;-78
2021/08/15 00:38:25;;;;;;;10.98;5.55;;;17.10;99.90;;;;;;5074905;27;20497;-78
2021/08/15 00:40:58;;;;;;;8.43;5.15;;;17.10;99.90;;;;;;5074762;28;20038;-79
2021/08/15 00:43:26;;;;;;;9.05;5.28;;;17.10;99.90;;;;;;5040346;28;20047;-80
2021/08/15 00:46:13;;;;;;;9.18;5.65;;;17.10;99.90;;;;;;5057211;28;20091;-79
2021/08/15 00:48:43;;;;;;;8.55;5.20;;;17.10;99.90;;;;;;5072136;28;20043;-80
2021/08/15 00:51:09;;;;;;;8.75;5.55;;;17.20;99.90;;;;;;5055683;28;20056;-80
2021/08/15 00:53:40;;;;;;;8.43;4.70;;;17.20;99.90;;;;;;5056231;28;20058;-78
2021/08/15 00:56:08;;;;;;;9.27;5.20;;;17.20;99.90;;;;;;5055053;28;20059;-78
2021/08/15 00:58:38;;;;;;;8.00;4.95;;;17.20;99.90;;;;;;5074202;28;20032;-78
2021/08/15 01:01:09;;;;;;;8.02;4.97;;;17.30;99.90;;;;;;5073390;27;20038;-78
2021/08/15 01:03:36;;;;;;;9.43;4.70;;;17.30;99.90;;;;;;5071660;28;20063;-78
2021/08/15 01:06:03;;;;;;;7.13;4.70;;;17.40;99.90;;;;;;5070627;28;21307;-78
2021/08/15 01:08:31;;;;;;;6.70;4.70;;;17.40;99.90;;;;;;5071568;28;20039;-78
2021/08/15 01:11:00;;;;;;;8.48;5.30;;;17.40;99.90;;;;;;5038900;28;20394;-79
2021/08/15 01:13:26;;;;;;;7.20;4.25;;;17.50;99.90;;;;;;5072683;28;20043;-78
2021/08/15 01:15:53;;;;;;;7.18;4.45;;;17.50;99.90;;;;;;5089602;28;20048;-80
2021/08/15 01:18:26;;;;;;;8.82;4.68;;;17.50;99.90;;;;;;5053730;28;20889;-80
2021/08/15 01:20:57;;;;;;;7.15;4.00;;;17.50;99.90;;;;;;5072505;28;20105;-78
2021/08/15 01:23:24;;;;;;;5.50;3.67;;;17.50;99.90;;;;;;5089685;28;20031;-78
2021/08/15 01:25:51;;;;;;;8.70;4.50;;;17.50;99.90;;;;;;5054691;28;20535;-80
2021/08/15 01:28:21;;;;;;;6.75;3.85;;;17.50;99.90;;;;;;5053713;28;20046;-80
2021/08/15 01:30:49;;;;;;;7.47;3.80;;;17.50;99.90;;;;;;5074840;27;20468;-80
2021/08/15 01:33:33;;;;;;;8.35;3.65;;;17.50;99.90;;;;;;5074140;28;20058;-80
2021/08/15 01:36:01;;;;;;;8.10;4.00;;;17.50;99.90;;;;;;5072404;28;20588;-80
2021/08/15 01:38:30;;;;;;;6.38;4.05;;;17.40;99.90;;;;;;5054472;27;20039;-80
2021/08/15 01:40:58;;;;;;;8.25;4.95;;;17.40;99.90;;;;;;5055038;28;20032;-80
2021/08/15 01:43:26;;;;;;;6.78;3.97;;;17.40;99.90;;;;;;5074932;27;20031;-80
2021/08/15 01:45:52;;;;;;;8.25;4.85;;;17.30;99.90;;;;;;5075200;28;20039;-80
2021/08/15 01:48:19;;;;;;;5.85;3.92;;;17.30;99.90;;;;;;5053575;28;20439;-81
2021/08/15 01:50:47;;;;;;;6.47;4.20;;;17.30;99.90;;;;;;5071958;28;20053;-80
2021/08/15 01:53:17;;;;;;;8.93;5.18;;;17.20;99.90;;;;;;5089494;28;20036;-80
2021/08/15 01:55:44;;;;;;;8.50;4.43;;;17.20;99.90;;;;;;5060289;28;20051;-80
2021/08/15 01:58:11;;;;;;;6.88;4.25;;;17.20;99.90;;;;;;5088542;28;20390;-80
2021/08/15 02:00:41;;;;;;;5.47;3.85;;;17.10;99.90;;;;;;5054997;28;20533;-80
2021/08/15 02:03:09;;;;;;;8.18;4.22;;;17.10;99.90;;;;;;5087856;28;20098;-80
2021/08/15 02:05:37;;;;;;;8.32;4.32;;;17.10;99.90;;;;;;5071653;27;20050;-80
2021/08/15 02:08:04;;;;;;;7.68;4.28;;;17.00;99.90;;;;;;5035820;28;20059;-80
2021/08/15 02:10:31;;;;;;;7.05;3.97;;;17.00;99.90;;;;;;5057350;27;20047;-80
2021/08/15 02:13:01;;;;;;;6.97;4.20;;;17.00;99.90;;;;;;5072462;28;20047;-80
2021/08/15 02:15:28;;;;;;;7.53;4.45;;;17.00;99.90;;;;;;5070030;27;20043;-78
2021/08/15 02:17:54;;;;;;;9.95;4.70;;;17.00;99.90;;;;;;5071021;28;20048;-78
2021/08/15 02:20:22;;;;;;;10.00;4.63;;;17.00;99.90;;;;;;5070909;28;20042;-78
2021/08/15 02:22:49;;;;;;;6.93;4.57;;;16.90;99.90;;;;;;5035652;28;20036;-78
2021/08/15 02:25:17;;;;;;;6.03;4.30;;;17.00;99.90;;;;;;5086504;28;20042;-78
2021/08/15 02:27:44;;;;;;;7.47;4.80;;;17.00;99.90;;;;;;5054197;28;20048;-78
2021/08/15 02:30:13;;;;;;;7.03;4.53;;;16.90;99.90;;;;;;5053786;28;20051;-78
2021/08/15 02:32:41;;;;;;;7.82;4.00;;;17.00;99.90;;;;;;5069449;28;20040;-78
2021/08/15 02:35:09;;;;;;;5.65;3.90;;;17.00;99.90;;;;;;5105006;28;20102;-78
2021/08/15 02:37:38;;;;;;;7.68;4.28;;;17.00;99.90;;;;;;5086623;28;20047;-78
2021/08/15 02:40:07;;;;;;;7.47;3.90;;;17.00;99.90;;;;;;5071168;28;20055;-78
2021/08/15 02:42:36;;;;;;;7.15;4.13;;;17.00;99.90;;;;;;5070773;28;20035;-78
2021/08/15 02:45:07;;;;;;;6.07;3.95;;;16.90;99.90;;;;;;5069990;28;20051;-78
2021/08/15 02:47:34;;;;;;;6.63;4.18;;;16.90;99.90;;;;;;5067472;28;20047;-78
2021/08/15 02:50:01;;;;;;;7.30;4.40;;;16.90;99.90;;;;;;5070212;28;20063;-78
2021/08/15 02:52:27;;;;;;;8.15;4.00;;;16.90;99.90;;;;;;5053509;28;20059;-78
2021/08/15 02:54:54;;;;;;;8.57;3.97;;;16.90;99.90;;;;;;5086682;28;20047;-78
2021/08/15 02:57:20;;;;;;;7.35;3.97;;;16.80;99.90;;;;;;5067744;28;20051;-78
2021/08/15 02:59:46;;;;;;;8.40;4.90;;;16.80;99.90;;;;;;5051983;28;20043;-78
2021/08/15 03:02:15;;;;;;;6.55;3.70;;;16.80;99.90;;;;;;5020651;28;20039;-77
2021/08/15 03:04:43;;;;;;;5.70;3.58;;;16.70;99.90;;;;;;5087229;28;20078;-78
2021/08/15 03:07:10;;;;;;;7.45;4.45;;;16.70;99.90;;;;;;5051519;28;20054;-78
2021/08/15 03:09:36;;;;;;;6.70;4.78;;;16.70;99.90;;;;;;5085479;28;20402;-78
2021/08/15 03:12:03;;;;;;;10.07;4.70;;;16.70;99.90;;;;;;5087095;27;20842;-78
2021/08/15 03:14:30;;;;;;;8.38;5.20;;;16.70;99.90;;;;;;5070169;28;20050;-79
2021/08/15 03:16:56;;;;;;;7.53;4.60;;;16.70;99.90;;;;;;5052253;28;20058;-79
2021/08/15 03:19:22;;;;;;;6.93;4.40;;;16.60;99.90;;;;;;5068137;28;20051;-79
2021/08/15 03:21:49;;;;;;;9.00;3.83;;;16.60;99.90;;;;;;5053762;28;20050;-79
2021/08/15 03:24:15;;;;;;;5.47;3.85;;;16.50;99.90;;;;;;5071874;28;20036;-78
2021/08/15 03:26:44;;;;;;;6.45;4.35;;;16.50;99.90;;;;;;5103490;28;20031;-78
2021/08/15 03:29:15;;;;;;;7.97;4.90;;;16.40;99.90;;;;;;5082705;28;20046;-78
2021/08/15 03:31:43;;;;;;;8.93;5.60;;;16.40;99.90;;;;;;5070474;28;20042;-79
2021/08/15 03:34:12;;;;;;;7.18;5.15;;;16.40;99.90;;;;;;5072032;28;20054;-78
2021/08/15 03:36:39;;;;;;;8.75;5.15;;;16.30;99.90;;;;;;5068788;28;20508;-79
2021/08/15 03:39:06;;;;;;;7.65;5.32;;;16.30;99.90;;;;;;5084338;28;20047;-79
2021/08/15 03:41:33;;;;;;;7.82;5.30;;;16.30;99.90;;;;;;5069149;28;20035;-80
2021/08/15 03:43:59;;;;;;;8.85;5.15;;;16.30;99.90;;;;;;5042459;28;20050;-79
2021/08/15 03:46:25;;;;;;;7.20;5.00;;;16.20;99.90;;;;;;5085915;28;20379;-79
2021/08/15 03:48:52;;;;;;;7.78;4.57;;;16.20;99.90;;;;;;5068319;28;20481;-79
2021/08/15 03:51:18;;;;;;;7.50;4.47;;;16.20;99.90;;;;;;5037256;28;20517;-79
2021/08/15 03:53:45;;;;;;;7.13;4.65;;;16.20;99.90;;;;;;5050456;28;20058;-79
2021/08/15 03:56:11;;;;;;;7.57;4.47;;;16.20;99.90;;;;;;5069183;28;20035;-79
2021/08/15 03:58:37;;;;;;;8.13;4.18;;;16.20;99.90;;;;;;5056297;28;20525;-79
2021/08/15 04:01:04;;;;;;;9.35;4.18;;;16.10;99.90;;;;;;5068765;28;20352;-79
2021/08/15 04:03:31;;;;;;;6.72;3.90;;;16.10;99.90;;;;;;5034409;28;20052;-79
2021/08/15 04:05:59;;;;;;;6.07;4.35;;;16.10;99.90;;;;;;5070149;28;20040;-79
2021/08/15 04:08:26;;;;;;;8.27;4.43;;;16.10;99.90;;;;;;5035696;28;20043;-80
2021/08/15 04:10:53;;;;;;;6.32;4.35;;;16.00;99.90;;;;;;5090344;28;20054;-79
2021/08/15 04:13:19;;;;;;;7.45;4.28;;;16.10;99.90;;;;;;5059869;28;20039;-79
2021/08/15 04:15:46;;;;;;;5.28;3.33;;;16.10;99.90;;;;;;5039580;28;20047;-79
2021/08/15 04:18:12;;;;;;;8.40;4.32;;;16.10;99.90;;;;;;5051254;28;20048;-79
2021/08/15 04:20:38;;;;;;;7.13;3.80;;;16.10;99.90;;;;;;5069951;28;20055;-79
2021/08/15 04:23:05;;;;;;;6.95;4.40;;;16.00;99.90;;;;;;5071155;28;20044;-79
2021/08/15 04:25:31;;;;;;;8.70;4.32;;;16.00;99.90;;;;;;5085834;28;20045;-79
2021/08/15 04:27:57;;;;;;;6.97;4.05;;;16.10;99.90;;;;;;5068577;28;20380;-79
2021/08/15 04:30:24;;;;;;;8.18;4.57;;;16.10;99.90;;;;;;5070773;28;20032;-79
2021/08/15 04:32:51;;;;;;;6.97;3.83;;;16.10;99.90;;;;;;5069556;28;20047;-79
2021/08/15 04:35:17;;;;;;;10.93;4.85;;;16.10;99.90;;;;;;5035556;28;20055;-79
2021/08/15 04:37:43;;;;;;;7.43;4.20;;;16.20;99.90;;;;;;5067362;28;20522;-79
2021/08/15 04:40:10;;;;;;;7.00;4.25;;;16.20;99.90;;;;;;5071100;28;20043;-79
2021/08/15 04:42:37;;;;;;;7.85;4.90;;;16.20;99.90;;;;;;5035226;28;20514;-79
2021/08/15 04:45:04;;;;;;;11.05;4.80;;;16.20;99.90;;;;;;5052142;28;20055;-79
2021/08/15 04:47:30;;;;;;;8.55;4.40;;;16.20;99.90;;;;;;5085308;28;20092;-80
2021/08/15 04:49:58;;;;;;;7.93;4.28;;;16.30;99.90;;;;;;5085780;28;20050;-79
2021/08/15 04:52:24;;;;;;;7.30;4.07;;;16.30;99.90;;;;;;5053702;28;20070;-79
2021/08/15 04:54:51;;;;;;;7.47;4.57;;;16.40;99.90;;;;;;5087316;28;20051;-79
2021/08/15 04:57:17;;;;;;;6.63;3.80;;;16.40;99.90;;;;;;5085544;28;20051;-79
2021/08/15 04:59:43;;;;;;;6.38;4.15;;;16.40;99.90;;;;;;5018822;28;20040;-78
2021/08/15 05:02:10;;;;;;;7.50;4.32;;;16.50;99.90;;;;;;5069125;28;20035;-78
2021/08/15 05:04:36;;;;;;;7.55;4.20;;;16.50;99.90;;;;;;5059257;28;20126;-77
2021/08/15 05:07:03;;;;;;;9.45;5.35;;;16.50;99.90;;;;;;5086734;28;20793;-77
2021/08/15 05:09:30;;;;;;;10.00;5.22;;;16.60;99.90;;;;;;5084253;28;20043;-77
2021/08/15 05:11:56;;;;;;;10.68;5.18;;;16.60;99.90;;;;;;5085609;28;20020;-77
2021/08/15 05:14:22;;;;;;;7.97;5.22;;;16.60;99.90;;;;;;5052400;28;20040;-77
2021/08/15 05:16:49;;;;;;;7.93;5.15;;;16.70;99.90;;;;;;5102157;28;20035;-79
2021/08/15 05:19:15;;;;;;;8.50;5.38;;;16.70;99.90;;;;;;5059917;28;20055;-79
2021/08/15 05:21:42;;;;;;;10.57;5.53;;;16.80;99.90;;;;;;5054590;28;20046;-80
2021/08/15 05:24:08;;;;;;;11.05;5.70;;;16.80;99.90;;;;;;5056745;28;20050;-79
2021/08/15 05:26:34;;;;;;;7.97;6.50;;;16.90;99.90;;;;;;5071425;27;20521;-80
2021/08/15 05:29:01;;;;;;;9.70;6.38;;;16.90;99.90;;;;;;5087999;28;20040;-79
2021/08/15 05:31:27;;;;;;;9.43;6.30;;;16.90;99.90;;;;;;5025767;27;20066;-79
2021/08/15 05:33:54;;;;;;;11.43;6.47;;;17.00;99.90;;;;;;5040302;28;20050;-79
2021/08/15 05:36:20;;;;;;;11.82;7.03;;;17.00;99.90;;;;;;5019780;28;20048;-79
2021/08/15 05:38:47;;;;;;;13.25;7.10;;;17.10;99.90;;;;;;5069777;28;20051;-79
2021/08/15 05:41:13;;;;;;;10.00;6.72;;;17.10;99.90;;;;;;5088583;28;20036;-80
2021/08/15 05:43:39;;;;;;;11.23;7.50;;;17.10;99.90;;;;;;5054719;28;20047;-80
2021/08/15 05:46:06;;;;;;;10.45;7.38;;;17.20;99.90;;;;;;5071578;28;20479;-80
2021/08/15 05:48:32;;;;;;;11.32;8.45;;;17.20;99.90;;;;;;5053513;28;20062;-80
2021/08/15 05:51:01;;;;;;;12.38;8.80;;;17.20;99.90;;;;;;5054749;28;20055;-80
2021/08/15 05:53:28;;;;;;;13.98;8.63;;;17.20;99.90;;;;;;5072656;28;20027;-80
2021/08/15 05:55:54;;;;;;;13.77;8.10;;;17.30;99.90;;;;;;5038343;27;20047;-80
2021/08/15 05:58:21;;;;;;;11.18;8.15;;;17.30;99.90;;;;;;5033840;28;20044;-80
2021/08/15 06:00:48;;;;;;;11.20;7.60;;;17.50;99.90;;;;;;5089059;28;20046;-80
2021/08/15 06:03:15;;;;;;;13.23;8.48;;;17.60;99.90;;;;;;5070654;28;20040;-80
2021/08/15 06:05:41;;;;;;;16.17;10.43;;;17.80;99.90;;;;;;5052886;28;20062;-80
2021/08/15 06:08:08;;;;;;;16.02;10.50;;;17.90;99.90;;;;;;5056668;28;20059;-80
2021/08/15 06:10:34;;;;;;;16.42;11.05;;;18.10;99.90;;;;;;5073874;27;20039;-79
2021/08/15 06:13:01;;;;;;;16.13;11.75;;;18.30;99.90;;;;;;5071448;28;20055;-78
2021/08/15 06:15:27;;;;;;;15.68;11.38;;;18.40;99.90;;;;;;5087631;27;20894;-78
2021/08/15 06:17:54;;;;;;;19.55;12.23;;;18.50;99.90;;;;;;5051915;28;20063;-78
2021/08/15 06:20:20;;;;;;;16.20;11.48;;;18.50;99.90;;;;;;5056055;27;20051;-78
2021/08/15 06:22:47;;;;;;;12.35;10.15;;;18.60;99.90;;;;;;5054143;28;20039;-80
2021/08/15 06:25:15;;;;;;;14.18;10.55;;;18.70;99.90;;;;;;5087340;28;20039;-80
2021/08/15 06:27:44;;;;;;;15.63;11.20;;;18.80;99.90;;;;;;5085557;28;20043;-80
2021/08/15 06:30:13;;;;;;;16.98;10.23;;;18.80;99.90;;;;;;5087679;28;20035;-80
2021/08/15 06:32:56;;;;;;;17.92;11.35;;;19.00;99.90;;;;;;5087481;28;20044;-83
2021/08/15 06:35:27;;;;;;;16.98;12.00;;;19.30;99.90;;;;;;5071236;28;20058;-77
2021/08/15 06:37:55;;;;;;;21.93;13.17;;;19.40;99.90;;;;;;5057435;28;20043;-79
2021/08/15 06:40:23;;;;;;;14.35;10.98;;;19.40;99.90;;;;;;5069677;28;20660;-77
2021/08/15 06:42:50;;;;;;;14.20;10.93;;;19.50;99.90;;;;;;5039764;27;20039;-77
2021/08/15 06:45:19;;;;;;;14.90;10.82;;;19.70;99.90;;;;;;5086345;28;20027;-77
2021/08/15 06:47:46;;;;;;;15.70;12.50;;;20.10;99.90;;;;;;5084311;28;20046;-76
2021/08/15 06:50:13;;;;;;;17.13;11.30;;;20.60;99.90;;;;;;5089612;27;20043;-77
2021/08/15 06:52:40;;;;;;;13.32;9.45;;;20.90;99.80;;;;;;5076137;27;20045;-77
2021/08/15 06:55:07;;;;;;;12.07;9.65;;;21.20;99.40;;;;;;5085443;28;20040;-77
2021/08/15 06:57:33;;;;;;;14.48;10.05;;;21.40;99.10;;;;;;5082110;28;20051;-77
2021/08/15 07:00:01;;;;;;;20.17;10.25;;;21.50;98.60;;;;;;5104494;28;20043;-77
2021/08/15 07:02:27;;;;;;;15.65;9.98;;;21.60;98.40;;;;;;5036028;28;20042;-77
2021/08/15 07:04:53;;;;;;;12.60;9.45;;;21.60;98.10;;;;;;5091900;27;20027;-76
2021/08/15 07:07:20;;;;;;;11.73;8.98;;;21.80;97.90;;;;;;5090109;28;20039;-76
2021/08/15 07:09:46;;;;;;;13.07;10.52;;;22.10;97.70;;;;;;5090057;27;20028;-76
2021/08/15 07:12:12;;;;;;;12.35;8.85;;;22.40;97.10;;;;;;5060872;27;20040;-76
2021/08/15 07:14:41;;;;;;;12.95;9.38;;;22.60;96.70;;;;;;5085736;28;20043;-76
2021/08/15 07:17:08;;;;;;;12.13;8.05;;;22.80;96.30;;;;;;5085522;28;20055;-76
2021/08/15 07:19:35;;;;;;;10.18;7.78;;;22.80;96.00;;;;;;5066917;28;20055;-76
2021/08/15 07:22:02;;;;;;;10.98;6.82;;;22.90;95.60;;;;;;5084209;28;20094;-77
2021/08/15 07:24:30;;;;;;;9.45;7.68;;;22.90;95.60;;;;;;5069017;28;20516;-77
2021/08/15 07:26:57;;;;;;;10.68;6.90;;;23.00;95.40;;;;;;5103297;27;20485;-77
2021/08/15 07:29:24;;;;;;;10.98;8.13;;;23.00;95.10;;;;;;5083886;28;20035;-77
2021/08/15 07:31:50;;;;;;;10.45;7.03;;;23.00;94.90;;;;;;5052811;28;20043;-77
2021/08/15 07:34:17;;;;;;;10.05;7.32;;;22.90;94.80;;;;;;5103444;27;20032;-77
2021/08/15 07:36:43;;;;;;;11.45;7.57;;;22.90;94.80;;;;;;5087041;27;20047;-77
2021/08/15 07:39:10;;;;;;;12.32;7.43;;;23.00;94.70;;;;;;5103723;27;20047;-77
2021/08/15 07:41:36;;;;;;;8.45;6.28;;;23.10;94.40;;;;;;5086063;28;20035;-77
2021/08/15 07:44:03;;;;;;;9.20;5.95;;;23.20;93.90;;;;;;5069287;28;20035;-77
2021/08/15 07:46:30;;;;;;;11.43;7.05;;;23.20;93.80;;;;;;5070090;27;20498;-77
2021/08/15 07:48:58;;;;;;;10.70;6.18;;;23.40;93.50;;;;;;5066787;28;20054;-77
2021/08/15 07:51:25;;;;;;;9.70;5.60;;;23.40;93.10;;;;;;5069639;28;20040;-77
2021/08/15 07:53:51;;;;;;;7.82;4.85;;;23.40;92.80;;;;;;5068539;28;20039;-77
2021/08/15 07:56:18;;;;;;;9.40;5.82;;;23.40;92.60;;;;;;5084987;28;20047;-76
2021/08/15 07:58:44;;;;;;;7.65;5.32;;;23.40;92.30;;;;;;5066145;28;20043;-77
2021/08/15 08:01:10;;;;;;;7.75;5.18;;;23.40;92.20;;;;;;5068379;28;20094;-77
2021/08/15 08:03:37;;;;;;;10.10;6.55;;;23.30;92.10;;;;;;5086058;28;20497;-77
2021/08/15 08:06:03;;;;;;;10.43;5.18;;;23.50;91.90;;;;;;5085525;28;20038;-77
2021/08/15 08:08:30;;;;;;;12.13;6.35;;;23.60;91.70;;;;;;5101836;28;20028;-77
2021/08/15 08:10:58;;;;;;;13.15;6.63;;;23.60;91.20;;;;;;5082749;28;20048;-76
2021/08/15 08:13:24;;;;;;;8.40;4.88;;;23.60;91.00;;;;;;5068126;28;20048;-77
2021/08/15 08:15:51;;;;;;;9.30;5.00;;;23.60;91.00;;;;;;5052581;28;20048;-77
2021/08/15 08:18:18;;;;;;;8.00;4.40;;;23.60;90.80;;;;;;5083184;28;20048;-77
2021/08/15 08:20:44;;;;;;;8.88;4.60;;;23.70;90.50;;;;;;5085191;28;20043;-77
2021/08/15 08:23:14;;;;;;;8.80;5.05;;;23.70;90.00;;;;;;5084723;28;20044;-77
2021/08/15 08:25:44;;;;;;;9.07;5.10;;;23.60;89.30;;;;;;5084250;28;20528;-77
2021/08/15 08:28:12;;;;;;;8.02;4.82;;;23.60;88.90;;;;;;5083009;28;20043;-77
2021/08/15 08:30:39;;;;;;;8.70;5.10;;;23.50;89.00;;;;;;5085459;28;20035;-77
2021/08/15 08:33:05;;;;;;;8.65;5.63;;;23.40;89.50;;;;;;5083919;28;20048;-77
2021/08/15 08:35:32;;;;;;;8.02;5.32;;;23.50;89.80;;;;;;5083762;28;20054;-76
2021/08/15 08:37:58;;;;;;;8.93;6.18;;;23.40;90.00;;;;;;5082978;28;20509;-77
2021/08/15 08:40:25;;;;;;;8.93;6.20;;;23.40;90.10;;;;;;5084682;28;20150;-76
2021/08/15 08:42:52;;;;;;;9.57;6.75;;;23.50;90.20;;;;;;5066340;28;20040;-77
2021/08/15 08:45:22;;;;;;;10.32;6.57;;;23.50;90.10;;;;;;5083581;28;20039;-78
2021/08/15 08:47:53;;;;;;;7.45;5.03;;;23.60;90.20;;;;;;5102322;28;20338;-76
2021/08/15 08:50:21;;;;;;;8.80;5.30;;;23.90;90.20;;;;;;5108931;27;20036;-77
2021/08/15 08:52:48;;;;;;;10.77;6.22;;;24.30;90.10;;;;;;5086621;28;20031;-76
2021/08/15 08:55:16;;;;;;;8.50;5.80;;;24.60;89.40;;;;;;5109914;27;20028;-78
2021/08/15 08:57:44;;;;;;;8.70;5.78;;;24.90;88.40;;;;;;5061034;28;20494;-78
2021/08/15 09:00:11;;;;;;;10.10;5.25;;;25.00;88.00;;;;;;5073262;27;20032;-77
2021/08/15 09:02:38;;;;;;;8.70;4.93;;;25.10;87.00;;;;;;5073830;27;20520;-77
2021/08/15 09:05:06;;;;;;;10.63;5.70;;;25.30;86.70;;;;;;5092444;27;20393;-77
2021/08/15 09:07:35;;;;;;;8.85;4.60;;;25.40;85.80;;;;;;5074107;27;20043;-77
2021/08/15 09:10:05;;;;;;;8.50;5.10;;;25.40;85.80;;;;;;5078120;27;20385;-77
2021/08/15 09:12:33;;;;;;;6.22;3.95;;;25.40;85.20;;;;;;5074476;27;20043;-78
2021/08/15 09:15:15;;;;;;;9.30;4.32;;;25.40;85.30;;;;;;5089906;28;20047;-77
2021/08/15 09:17:43;;;;;;;7.47;4.15;;;25.50;85.40;;;;;;5083875;28;20064;-78
2021/08/15 09:20:11;;;;;;;6.82;4.28;;;25.70;85.00;;;;;;5110949;27;20036;-75
2021/08/15 09:22:39;;;;;;;8.32;4.47;;;25.90;84.20;;;;;;5058749;28;20044;-75
2021/08/15 09:25:11;;;;;;;7.50;4.22;;;26.00;83.80;;;;;;5087252;28;20050;-75
2021/08/15 09:27:43;;;;;;;8.02;4.28;;;26.10;83.90;;;;;;5088434;28;20034;-76
2021/08/15 09:30:17;;;;;;;;;;;26.20;83.20;;;;;;5094029;27;20032;-75
2021/08/15 09:32:50;;;;;;;8.15;4.70;;;26.30;83.00;;;;;;5090084;28;19911;-76
2021/08/15 09:35:38;;;;;;;8.07;3.75;;;26.30;82.30;;;;;;5088216;27;20031;-75
2021/08/15 09:38:04;;;;;;;7.22;3.75;;;26.40;81.90;;;;;;5067780;28;20040;-76
2021/08/15 09:40:46;;;;;;;8.48;3.40;;;26.50;81.90;;;;;;5105891;28;20830;-76
2021/08/15 09:43:27;;;;;;;8.35;3.22;;;26.70;81.30;;;;;;5106210;27;20028;-75
2021/08/15 09:45:58;;;;;;;6.63;3.58;;;26.70;81.10;;;;;;5106483;27;20030;-76
2021/08/15 09:48:39;;;;;;;7.20;3.75;;;26.90;80.90;;;;;;5085687;28;20050;-74
2021/08/15 09:51:19;;;;;;;3.97;1.97;;;27.10;80.10;;;;;;5105038;27;20044;-75
2021/08/15 09:53:49;;;;;;;8.30;3.20;;;27.50;79.80;;;;;;5107747;27;20277;-75
2021/08/15 09:56:30;;;;;;;7.05;3.45;;;27.60;79.20;;;;;;5086907;28;20047;-74
2021/08/15 09:59:17;;;;;;;8.38;3.50;;;27.80;78.30;;;;;;5104029;28;20040;-75
2021/08/15 10:01:45;;;;;;;6.70;3.05;;;27.80;77.50;;;;;;5106031;28;20026;-75
2021/08/15 10:04:12;;;;;;;6.47;2.65;;;27.90;77.50;;;;;;5088184;28;20494;-76
2021/08/15 10:06:42;;;;;;;5.38;2.55;;;27.90;75.80;;;;;;5066955;28;20046;-75
2021/08/15 10:09:09;;;;;;;5.82;2.65;;;27.80;75.70;;;;;;5104075;27;20031;-75
2021/08/15 10:11:37;;;;;;;4.78;2.53;;;27.80;75.90;;;;;;5071652;27;20035;-75
2021/08/15 10:14:05;;;;;;;6.32;2.58;;;27.80;74.50;;;;;;5073305;27;20478;-75
2021/08/15 10:16:45;;;;;;;7.88;2.75;;;27.80;74.50;;;;;;5071511;28;20059;-75
2021/08/15 10:19:16;;;;;;;5.90;2.67;;;28.00;74.00;;;;;;5068323;28;20731;-75
2021/08/15 10:21:47;;;;;;;4.85;2.47;;;28.10;72.10;;;;;;5087369;27;20035;-75
2021/08/15 10:24:15;;;;;;;5.30;2.10;;;28.00;70.80;;;;;;5088399;28;20032;-75
2021/08/15 10:26:52;;;;;;;4.45;2.28;;;27.90;71.10;;;;;;5086235;27;20589;-75
2021/08/15 10:29:36;;;;;;;3.80;2.28;;;28.00;71.10;;;;;;5103472;27;20439;-77
2021/08/15 10:32:14;;;;;;;5.93;2.58;;;28.00;70.60;;;;;;5085198;28;20024;-77
2021/08/15 10:34:49;;;;;;;6.20;2.60;;;28.00;70.50;;;;;;5087701;28;20035;-77
2021/08/15 10:37:25;;;;;;;6.45;2.30;;;28.10;70.20;;;;;;5086497;28;20410;-77
2021/08/15 10:40:02;;;;;;;4.38;1.77;;;28.30;70.00;;;;;;5103168;28;20051;-77
2021/08/15 10:42:38;;;;;;;4.25;1.63;;;28.70;68.30;;;;;;5053446;28;20494;-83
2021/08/15 10:45:07;;;;;;;2.80;1.35;;;29.00;65.70;;;;;;5086531;28;20044;-80
2021/08/15 10:47:35;;;;;;;3.03;1.33;;;29.10;64.80;;;;;;5068734;28;20494;-78
2021/08/15 10:50:03;;;;;;;4.13;1.38;;;29.20;63.10;;;;;;5086619;28;20047;-76
2021/08/15 10:52:42;;;;;;;4.38;1.35;;;29.10;62.30;;;;;;5071652;28;20042;-78
2021/08/15 10:55:13;;;;;;;4.18;2.03;;;29.00;62.60;;;;;;5053072;28;20050;-77
2021/08/15 10:57:51;;;;;;;3.50;1.65;;;29.10;62.20;;;;;;5071366;28;20044;-76
2021/08/15 11:00:30;;;;;;;3.05;1.50;;;29.20;62.50;;;;;;5087131;28;20379;-78
2021/08/15 11:03:21;;;;;;;2.88;1.23;;;29.30;62.10;;;;;;5069671;28;20040;-78
2021/08/15 11:05:48;;;;;;;3.47;1.63;;;29.50;61.70;;;;;;5081489;28;20518;-79
2021/08/15 11:08:33;;;;;;;2.55;1.15;;;29.90;61.90;;;;;;5049690;28;20047;-78
2021/08/15 11:11:10;;;;;;;3.58;1.52;;;30.20;61.10;;;;;;5103231;28;20047;-77
2021/08/15 11:13:38;;;;;;;3.25;1.30;;;30.40;60.60;;;;;;5105111;28;20482;-80
2021/08/15 11:16:25;;;;;;;3.08;1.70;;;30.70;59.90;;;;;;5068504;28;20051;-80
2021/08/15 11:19:07;;;;;;;3.53;1.70;;;31.10;58.20;;;;;;5083871;28;20521;-79
2021/08/15 11:21:52;;;;;;;;;;;31.50;57.70;;;;;;5066246;28;20110;-80
2021/08/15 11:24:22;;;;;;;2.53;1.33;;;31.30;57.60;;;;;;5085654;28;19923;-80
2021/08/15 11:26:49;;;;;;;3.20;1.70;;;31.20;58.50;;;;;;5103679;28;20494;-80
2021/08/15 11:29:19;;;;;;;2.97;1.20;;;31.10;58.10;;;;;;5051412;28;20062;-80
2021/08/15 11:31:50;;;;;;;3.95;1.10;;;31.00;58.40;;;;;;5060806;28;20387;-80
2021/08/15 11:34:17;;;;;;;2.67;1.10;;;30.90;57.30;;;;;;5052799;28;20047;-79
2021/08/15 11:36:43;;;;;;;2.40;1.10;;;30.70;56.70;;;;;;5069986;28;20062;-80
2021/08/15 11:39:10;;;;;;;1.98;0.95;;;30.50;57.00;;;;;;5052688;28;20043;-79
2021/08/15 11:41:40;;;;;;;2.70;1.33;;;30.40;57.30;;;;;;5086285;28;20032;-81
2021/08/15 11:44:09;;;;;;;2.72;1.30;;;30.40;57.20;;;;;;5070416;28;20035;-80
2021/08/15 11:46:35;;;;;;;4.50;1.13;;;30.30;57.60;;;;;;5057170;28;20391;-80
2021/08/15 11:49:02;;;;;;;1.95;0.98;;;30.30;57.40;;;;;;5071036;28;20062;-80
2021/08/15 11:51:28;;;;;;;2.42;1.23;;;30.10;58.00;;;;;;5069343;28;20591;-80
2021/08/15 11:53:55;;;;;;;3.63;1.50;;;30.10;58.20;;;;;;5062719;28;20063;-80
2021/08/15 11:56:23;;;;;;;2.75;1.30;;;30.10;58.60;;;;;;5019658;28;20118;-79
2021/08/15 11:58:51;;;;;;;3.40;1.50;;;30.20;58.60;;;;;;5051945;28;20051;-79
2021/08/15 12:01:24;;;;;;;2.47;1.50;;;30.20;59.40;;;;;;5052777;28;20043;-82
2021/08/15 12:03:58;;;;;;;2.33;1.42;;;30.50;59.10;;;;;;5084523;28;20031;-82
2021/08/15 12:06:26;;;;;;;3.72;1.60;;;30.70;59.30;;;;;;5068846;28;20047;-79
2021/08/15 12:08:52;;;;;;;3.50;1.10;;;31.20;58.80;;;;;;5084510;28;20023;-81
2021/08/15 12:11:24;;;;;;;2.95;1.15;;;31.80;57.60;;;;;;5071707;28;20052;-80
2021/08/15 12:14:12;;;;;;;2.72;1.10;;;32.30;57.30;;;;;;5056141;28;20054;-80
2021/08/15 12:16:40;;;;;;;1.92;1.00;;;32.80;56.50;;;;;;5087492;28;20062;-79
2021/08/15 12:19:07;;;;;;;2.67;0.90;;;32.90;55.40;;;;;;5088786;28;20046;-78
2021/08/15 12:21:38;;;;;;;4.43;0.85;;;32.80;55.50;;;;;;5069157;28;20421;-78
2021/08/15 12:24:19;;;;;;;1.60;0.82;;;32.90;55.50;;;;;;5085302;28;20031;-77
2021/08/15 12:26:55;;;;;;;2.33;0.70;;;32.70;54.90;;;;;;5086473;28;20028;-79
2021/08/15 12:29:23;;;;;;;1.52;0.60;;;32.50;56.00;;;;;;5069532;28;20040;-79
2021/08/15 12:32:19;;;;;;;2.33;0.80;;;32.90;56.60;;;;;;5090047;28;20031;-79
2021/08/15 12:34:56;;;;;;;2.17;1.10;;;33.60;55.80;;;;;;5089514;28;21474;-78
2021/08/15 12:37:28;;;;;;;2.28;1.00;;;34.10;55.30;;;;;;5077044;28;20406;-78
2021/08/15 12:40:03;;;;;;;2.22;0.90;;;34.30;54.30;;;;;;5106797;27;20035;-81
2021/08/15 12:42:31;;;;;;;2.15;0.70;;;34.30;54.50;;;;;;5074679;28;20481;-80
2021/08/15 12:45:01;;;;;;;1.50;0.68;;;34.60;54.00;;;;;;5059356;28;20058;-82
2021/08/15 12:47:36;;;;;;;2.20;0.90;;;34.70;53.20;;;;;;5094095;28;20039;-82
2021/08/15 12:50:08;;;;;;;2.50;0.80;;;35.00;52.60;;;;;;5076108;28;20036;-78
2021/08/15 12:52:50;;;;;;;2.95;0.70;;;35.40;51.20;;;;;;5086828;27;20032;-79
2021/08/15 12:55:18;;;;;;;;;;;35.30;51.20;;;;;;5089289;28;20046;-79